createdAt,value
2022-11-27T00:01:27.050Z,29.93
2022-11-27T00:03:55.547Z,39.13
2022-11-27T00:06:24.662Z,39.20
2022-11-27T00:08:51.950Z,27.87
2022-11-27T00:11:21.033Z,31.67
2022-11-27T00:13:50.693Z,63.63
2022-11-27T00:16:18.768Z,41.80
2022-11-27T00:18:46.530Z,28.27
2022-11-27T00:21:16.273Z,28.50
2022-11-27T00:23:44.248Z,29.00
2022-11-27T00:26:11.408Z,25.93
2022-11-27T00:28:38.752Z,26.57
2022-11-27T00:31:13.000Z,34.90
2022-11-27T00:33:40.567Z,34.03
2022-11-27T00:36:09.131Z,32.10
2022-11-27T00:38:39.307Z,31.43
2022-11-27T00:41:07.177Z,33.17
2022-11-27T00:43:43.547Z,29.50
2022-11-27T00:46:13.935Z,28.73
2022-11-27T00:48:41.232Z,31.47
2022-11-27T00:51:10.782Z,27.83
2022-11-27T00:53:38.203Z,27.33
2022-11-27T00:56:05.888Z,34.60
2022-11-27T00:58:33.196Z,27.03
2022-11-27T01:01:02.851Z,25.63
2022-11-27T01:03:32.496Z,35.50
2022-11-27T01:06:03.334Z,30.80
2022-11-27T01:08:30.673Z,29.07
2022-11-27T01:10:58.848Z,31.97
2022-11-27T01:13:27.773Z,31.87
2022-11-27T01:15:59.572Z,29.77
2022-11-27T01:18:27.056Z,31.57
2022-11-27T01:20:55.828Z,40.93
2022-11-27T01:23:23.669Z,33.30
2022-11-27T01:25:53.311Z,29.00
2022-11-27T01:28:21.348Z,33.37
2022-11-27T01:30:48.487Z,24.77
2022-11-27T01:33:16.082Z,28.70
2022-11-27T01:35:42.913Z,27.17
2022-11-27T01:38:11.484Z,25.27
2022-11-27T01:40:38.366Z,27.37
2022-11-27T01:43:06.353Z,32.17
2022-11-27T01:45:33.195Z,35.40
2022-11-27T01:48:03.417Z,26.63
2022-11-27T01:50:34.105Z,32.83
2022-11-27T01:53:06.992Z,24.40
2022-11-27T01:55:37.593Z,33.07
2022-11-27T01:58:08.586Z,30.53
2022-11-27T02:00:35.923Z,28.40
2022-11-27T02:03:03.303Z,26.43
2022-11-27T02:05:30.656Z,24.80
2022-11-27T02:08:02.644Z,28.30
2022-11-27T02:10:40.530Z,25.97
2022-11-27T02:13:13.019Z,34.03
2022-11-27T02:15:44.301Z,32.73
2022-11-27T02:18:19.132Z,33.57
2022-11-27T02:20:55.031Z,30.53
2022-11-27T02:24:11.556Z,29.43
2022-11-27T02:27:21.206Z,31.90
2022-11-27T02:29:54.823Z,30.50
2022-11-27T02:32:27.091Z,34.47
2022-11-27T02:35:01.326Z,36.40
2022-11-27T02:37:34.886Z,38.80
2022-11-27T02:40:04.808Z,32.80
2022-11-27T02:42:36.153Z,35.27
2022-11-27T02:45:09.466Z,31.77
2022-11-27T02:47:40.378Z,34.10
2022-11-27T02:50:12.494Z,34.30
2022-11-27T02:52:40.681Z,27.33
2022-11-27T02:55:13.048Z,37.93
2022-11-27T02:57:41.653Z,33.93
2022-11-27T03:00:11.864Z,32.30
2022-11-27T03:02:44.675Z,32.20
2022-11-27T03:05:14.844Z,37.73
2022-11-27T03:07:47.498Z,27.50
2022-11-27T03:10:20.621Z,35.30
2022-11-27T03:12:49.985Z,32.87
2022-11-27T03:15:19.362Z,27.13
2022-11-27T03:17:53.026Z,33.63
2022-11-27T03:20:23.208Z,31.43
2022-11-27T03:22:50.658Z,34.50
2022-11-27T03:25:17.499Z,28.10
2022-11-27T03:27:49.061Z,29.90
2022-11-27T03:30:16.312Z,31.43
2022-11-27T03:32:44.678Z,36.60
2022-11-27T03:35:14.894Z,28.27
2022-11-27T03:37:42.369Z,30.30
2022-11-27T03:40:10.687Z,30.53
2022-11-27T03:42:49.976Z,27.70
2022-11-27T03:45:27.776Z,25.33
2022-11-27T03:48:03.773Z,30.60
2022-11-27T03:50:40.565Z,29.17
2022-11-27T03:53:18.094Z,22.50
2022-11-27T03:55:54.691Z,22.63
2022-11-27T03:58:29.295Z,31.80
2022-11-27T04:00:59.063Z,27.30
2022-11-27T04:03:29.606Z,26.53
2022-11-27T04:05:57.161Z,26.97
2022-11-27T04:08:24.808Z,28.23
2022-11-27T04:10:51.751Z,33.73
2022-11-27T04:13:18.964Z,25.50
2022-11-27T04:15:45.944Z,25.10
2022-11-27T04:18:13.216Z,25.77
2022-11-27T04:20:41.455Z,26.70
2022-11-27T04:23:08.369Z,31.67
2022-11-27T04:25:35.277Z,26.17
2022-11-27T04:28:02.454Z,28.03
2022-11-27T04:30:29.412Z,29.37
2022-11-27T04:32:56.602Z,22.90
2022-11-27T04:35:23.436Z,26.63
2022-11-27T04:37:51.859Z,25.97
2022-11-27T04:40:19.278Z,31.47
2022-11-27T04:42:46.590Z,26.20
2022-11-27T04:45:14.311Z,31.13
2022-11-27T04:47:41.504Z,28.87
2022-11-27T04:50:09.363Z,23.57
2022-11-27T04:52:36.573Z,30.43
2022-11-27T04:55:05.653Z,22.10
2022-11-27T04:57:33.092Z,24.93
2022-11-27T04:59:59.973Z,22.47
2022-11-27T05:02:26.850Z,23.33
2022-11-27T05:04:53.743Z,26.77
2022-11-27T05:07:21.007Z,23.77
2022-11-27T05:09:47.870Z,19.90
2022-11-27T05:12:16.504Z,22.53
2022-11-27T05:14:43.433Z,26.27
2022-11-27T05:17:10.977Z,23.17
2022-11-27T05:19:37.830Z,25.40
2022-11-27T05:22:04.733Z,26.33
2022-11-27T05:24:31.759Z,27.47
2022-11-27T05:26:58.984Z,28.80
2022-11-27T05:29:27.269Z,29.80
2022-11-27T05:31:54.663Z,21.77
2022-11-27T05:34:21.609Z,25.83
2022-11-27T05:36:48.708Z,25.50
2022-11-27T05:39:16.247Z,34.03
2022-11-27T05:41:43.932Z,27.27
2022-11-27T05:44:13.093Z,25.30
2022-11-27T05:46:43.647Z,26.43
2022-11-27T05:49:13.091Z,29.27
2022-11-27T05:51:40.171Z,25.37
2022-11-27T05:54:07.534Z,21.20
2022-11-27T05:56:34.513Z,27.53
2022-11-27T05:59:02.071Z,26.13
2022-11-27T06:01:28.893Z,26.57
2022-11-27T06:03:57.497Z,31.53
2022-11-27T06:06:24.424Z,33.57
2022-11-27T06:08:51.695Z,27.00
2022-11-27T06:11:20.921Z,31.47
2022-11-27T06:13:49.272Z,27.63
2022-11-27T06:16:19.144Z,27.67
2022-11-27T06:18:48.744Z,29.37
2022-11-27T06:21:17.257Z,25.70
2022-11-27T06:23:45.214Z,29.77
2022-11-27T06:26:14.671Z,32.53
2022-11-27T06:28:42.267Z,25.20
2022-11-27T06:31:15.939Z,34.80
2022-11-27T06:33:45.161Z,27.10
2022-11-27T06:36:12.055Z,27.17
2022-11-27T06:38:40.663Z,29.13
2022-11-27T06:41:09.735Z,29.53
2022-11-27T06:43:37.152Z,27.77
2022-11-27T06:46:05.627Z,25.97
2022-11-27T06:48:33.442Z,24.90
2022-11-27T06:51:01.558Z,29.70
2022-11-27T06:53:28.882Z,25.10
2022-11-27T06:55:57.328Z,27.27
2022-11-27T06:58:30.731Z,30.20
2022-11-27T07:00:58.637Z,29.43
2022-11-27T07:03:27.302Z,36.33
2022-11-27T07:05:54.298Z,27.93
2022-11-27T07:08:22.313Z,29.43
2022-11-27T07:10:49.284Z,30.20
2022-11-27T07:13:17.855Z,33.83
2022-11-27T07:15:44.701Z,27.93
2022-11-27T07:18:11.920Z,34.50
2022-11-27T07:20:38.903Z,27.80
2022-11-27T07:23:05.933Z,33.90
2022-11-27T07:25:32.778Z,29.13
2022-11-27T07:28:00.193Z,30.67
2022-11-27T07:30:28.612Z,41.50
2022-11-27T07:32:55.861Z,34.53
2022-11-27T07:35:22.691Z,26.23
2022-11-27T07:37:49.963Z,29.27
2022-11-27T07:40:18.340Z,31.50
2022-11-27T07:42:45.489Z,30.07
2022-11-27T07:45:12.516Z,33.07
2022-11-27T07:47:41.280Z,26.07
2022-11-27T07:50:09.231Z,26.03
2022-11-27T07:52:41.389Z,28.93
2022-11-27T07:55:09.879Z,26.60
2022-11-27T07:57:37.283Z,21.40
2022-11-27T08:00:05.264Z,24.00
2022-11-27T08:02:33.426Z,26.13
2022-11-27T08:05:01.694Z,25.13
2022-11-27T08:07:28.797Z,28.53
2022-11-27T08:09:57.513Z,21.93
2022-11-27T08:12:25.736Z,27.77
2022-11-27T08:14:54.170Z,28.70
2022-11-27T08:17:21.368Z,23.40
2022-11-27T08:19:48.301Z,28.40
2022-11-27T08:22:19.510Z,24.03
2022-11-27T08:24:47.992Z,22.07
2022-11-27T08:27:18.337Z,25.30
2022-11-27T08:29:45.263Z,26.30
2022-11-27T08:32:12.668Z,23.37
2022-11-27T08:34:39.859Z,25.80
2022-11-27T08:37:08.279Z,24.30
2022-11-27T08:39:36.465Z,27.53
2022-11-27T08:42:03.620Z,21.83
2022-11-27T08:44:30.466Z,20.67
2022-11-27T08:46:57.674Z,19.23
2022-11-27T08:49:24.797Z,20.60
2022-11-27T08:51:52.190Z,19.20
2022-11-27T08:54:19.039Z,20.70
2022-11-27T08:56:47.556Z,17.03
2022-11-27T08:59:14.447Z,15.97
2022-11-27T09:01:41.738Z,17.23
2022-11-27T09:04:08.637Z,18.13
2022-11-27T09:06:36.211Z,21.60
2022-11-27T09:09:05.805Z,19.47
2022-11-27T09:11:34.257Z,25.37
2022-11-27T09:14:03.842Z,21.90
2022-11-27T09:16:31.386Z,21.27
2022-11-27T09:18:58.437Z,19.40
2022-11-27T09:21:27.541Z,20.50
2022-11-27T09:23:55.097Z,18.23
2022-11-27T09:26:24.275Z,16.40
2022-11-27T09:28:53.440Z,14.20
2022-11-27T09:31:22.880Z,16.30
2022-11-27T09:33:49.968Z,15.33
2022-11-27T09:36:19.573Z,16.10
2022-11-27T09:38:46.856Z,17.17
2022-11-27T09:41:36.881Z,16.47
2022-11-27T09:44:11.829Z,17.00
2022-11-27T09:46:42.776Z,21.83
2022-11-27T09:49:15.802Z,20.03
2022-11-27T09:51:47.719Z,16.23
2022-11-27T09:54:20.463Z,15.07
2022-11-27T09:56:51.452Z,17.17
2022-11-27T09:59:21.014Z,15.33
2022-11-27T10:01:51.232Z,17.80
2022-11-27T10:04:19.925Z,16.20
2022-11-27T10:07:06.765Z,12.47
2022-11-27T10:09:44.097Z,15.23
2022-11-27T10:12:18.942Z,13.73
2022-11-27T10:14:58.122Z,16.23
2022-11-27T10:17:32.593Z,13.17
2022-11-27T10:20:09.399Z,17.67
2022-11-27T10:22:46.099Z,16.07
2022-11-27T10:25:18.185Z,13.93
2022-11-27T10:27:59.147Z,11.63
2022-11-27T10:30:29.497Z,15.67
2022-11-27T10:33:00.665Z,18.67
2022-11-27T10:35:30.340Z,13.17
2022-11-27T10:38:05.238Z,10.47
2022-11-27T10:40:39.912Z,12.03
2022-11-27T10:43:13.056Z,10.80
2022-11-27T10:45:45.889Z,10.77
2022-11-27T10:48:15.016Z,17.83
2022-11-27T10:50:42.703Z,15.10
2022-11-27T10:53:12.130Z,12.03
2022-11-27T10:55:55.602Z,15.53
2022-11-27T10:58:29.560Z,12.17
2022-11-27T11:01:06.931Z,13.50
2022-11-27T11:03:36.024Z,11.93
2022-11-27T11:06:23.415Z,12.13
2022-11-27T11:09:03.076Z,13.13
2022-11-27T11:11:30.002Z,11.10
2022-11-27T11:13:57.070Z,9.07
2022-11-27T11:16:33.327Z,12.57
2022-11-27T11:19:06.105Z,8.60
2022-11-27T11:21:35.570Z,10.90
2022-11-27T11:24:04.882Z,10.80
2022-11-27T11:26:36.467Z,12.00
2022-11-27T11:29:06.984Z,10.90
2022-11-27T11:31:37.333Z,9.83
2022-11-27T11:34:20.529Z,11.13
2022-11-27T11:36:59.171Z,9.23
2022-11-27T11:39:31.275Z,13.20
2022-11-27T11:41:58.964Z,14.13
2022-11-27T11:44:32.719Z,15.33
2022-11-27T11:46:59.782Z,12.60
2022-11-27T11:49:29.202Z,15.90
2022-11-27T11:52:26.761Z,13.80
2022-11-27T11:55:01.316Z,14.33
2022-11-27T11:57:59.160Z,10.23
2022-11-27T12:00:58.130Z,15.03
2022-11-27T12:03:38.625Z,9.67
2022-11-27T12:06:29.332Z,11.07
2022-11-27T12:09:09.120Z,14.73
2022-11-27T12:11:45.092Z,17.10
2022-11-27T12:14:21.225Z,14.70
2022-11-27T12:17:03.630Z,19.10
2022-11-27T12:19:46.054Z,15.27
2022-11-27T12:22:28.944Z,14.80
2022-11-27T12:25:06.569Z,16.60
2022-11-27T12:27:42.851Z,17.00
2022-11-27T12:30:14.791Z,13.57
2022-11-27T12:33:04.313Z,12.60
2022-11-27T12:35:34.127Z,18.93
2022-11-27T12:38:23.717Z,12.67
2022-11-27T12:41:03.317Z,14.23
2022-11-27T12:43:36.181Z,15.87
2022-11-27T12:46:11.613Z,18.30
2022-11-27T12:48:42.461Z,11.43
2022-11-27T12:51:13.180Z,14.00
2022-11-27T12:53:45.322Z,11.53
2022-11-27T12:56:21.270Z,14.77
2022-11-27T12:58:54.097Z,14.57
2022-11-27T13:01:29.245Z,17.07
2022-11-27T13:04:12.783Z,13.37
2022-11-27T13:06:46.857Z,12.47
2022-11-27T13:09:22.668Z,10.83
2022-11-27T13:11:50.601Z,17.20
2022-11-27T13:14:21.419Z,19.53
2022-11-27T13:16:52.916Z,13.10
2022-11-27T13:19:27.211Z,14.43
2022-11-27T13:21:57.304Z,9.93
2022-11-27T13:24:26.396Z,11.87
2022-11-27T13:27:01.324Z,12.10
2022-11-27T13:29:30.788Z,12.83
2022-11-27T13:32:00.656Z,11.97
2022-11-27T13:34:30.797Z,11.97
2022-11-27T13:37:00.630Z,11.73
2022-11-27T13:39:33.018Z,12.53
2022-11-27T13:42:04.233Z,11.53
2022-11-27T13:44:31.413Z,12.83
2022-11-27T13:47:05.323Z,13.07
2022-11-27T13:49:36.146Z,14.87
2022-11-27T13:52:10.007Z,11.93
2022-11-27T13:54:39.322Z,9.50
2022-11-27T13:57:15.895Z,12.23
2022-11-27T13:59:55.502Z,14.07
2022-11-27T14:02:22.999Z,12.80
2022-11-27T14:04:56.077Z,15.73
2022-11-27T14:07:24.288Z,15.10
2022-11-27T14:09:55.542Z,14.80
2022-11-27T14:12:25.819Z,15.90
2022-11-27T14:15:06.618Z,14.53
2022-11-27T14:17:37.175Z,21.73
2022-11-27T14:20:20.055Z,19.30
2022-11-27T14:23:11.248Z,11.83
2022-11-27T14:25:40.981Z,8.97
2022-11-27T14:28:15.037Z,10.97
2022-11-27T14:30:46.107Z,14.80
2022-11-27T14:33:24.442Z,11.47
2022-11-27T14:35:53.741Z,15.33
2022-11-27T14:38:20.945Z,13.63
2022-11-27T14:40:54.014Z,15.37
2022-11-27T14:43:31.526Z,16.50
2022-11-27T14:46:01.769Z,18.17
2022-11-27T14:48:34.177Z,16.57
2022-11-27T14:51:01.886Z,16.70
2022-11-27T14:53:29.196Z,14.47
2022-11-27T14:55:59.186Z,17.30
2022-11-27T14:58:28.701Z,15.07
2022-11-27T15:00:59.750Z,16.57
2022-11-27T15:03:45.111Z,15.07
2022-11-27T15:06:19.700Z,17.37
2022-11-27T15:08:58.059Z,20.20
2022-11-27T15:11:55.252Z,16.80
2022-11-27T15:14:23.402Z,16.33
2022-11-27T15:16:52.096Z,22.50
2022-11-27T15:19:28.594Z,22.13
2022-11-27T15:21:57.041Z,16.70
2022-11-27T15:24:30.687Z,16.17
2022-11-27T15:27:16.970Z,20.20
2022-11-27T15:29:59.553Z,19.70
2022-11-27T15:32:33.365Z,18.73
2022-11-27T15:35:00.235Z,15.93
2022-11-27T15:37:32.956Z,18.37
2022-11-27T15:40:01.221Z,15.57
2022-11-27T15:42:30.245Z,20.43
2022-11-27T15:44:58.455Z,19.50
2022-11-27T15:47:28.772Z,22.90
2022-11-27T15:49:59.400Z,20.80
2022-11-27T15:52:27.007Z,18.60
2022-11-27T15:54:55.306Z,19.20
2022-11-27T15:57:22.713Z,17.07
2022-11-27T15:59:50.982Z,16.87
2022-11-27T16:02:18.617Z,13.30
2022-11-27T16:04:46.021Z,13.23
2022-11-27T16:07:13.040Z,12.63
2022-11-27T16:09:40.086Z,21.17
2022-11-27T16:12:07.161Z,13.60
2022-11-27T16:14:34.218Z,18.37
2022-11-27T16:17:02.549Z,20.27
2022-11-27T16:19:29.998Z,18.13
2022-11-27T16:21:56.974Z,16.13
2022-11-27T16:24:23.971Z,11.43
2022-11-27T16:26:50.942Z,14.87
2022-11-27T16:29:17.928Z,18.00
2022-11-27T16:31:44.970Z,17.90
2022-11-27T16:34:14.376Z,17.57
2022-11-27T16:36:43.146Z,17.73
2022-11-27T16:39:10.405Z,13.87
2022-11-27T16:41:38.141Z,13.40
2022-11-27T16:44:10.699Z,20.13
2022-11-27T16:46:38.962Z,17.37
2022-11-27T16:49:06.804Z,27.13
2022-11-27T16:51:38.082Z,19.57
2022-11-27T16:54:07.549Z,13.97
2022-11-27T16:56:35.227Z,13.27
2022-11-27T16:59:03.364Z,13.17
2022-11-27T17:01:34.193Z,11.87
2022-11-27T17:04:03.425Z,13.87
2022-11-27T17:06:33.948Z,13.77
2022-11-27T17:09:06.526Z,16.43
2022-11-27T17:11:35.791Z,18.67
2022-11-27T17:14:05.396Z,16.33
2022-11-27T17:16:32.630Z,12.87
2022-11-27T17:18:59.794Z,13.13
2022-11-27T17:21:29.091Z,15.67
2022-11-27T17:23:57.261Z,16.70
2022-11-27T17:26:27.945Z,16.80
2022-11-27T17:28:57.635Z,19.60
2022-11-27T17:31:27.042Z,13.37
2022-11-27T17:33:56.575Z,16.40
2022-11-27T17:36:24.103Z,19.63
2022-11-27T17:38:54.551Z,17.00
2022-11-27T17:41:22.372Z,15.87
2022-11-27T17:43:50.793Z,15.87
2022-11-27T17:46:20.371Z,21.00
2022-11-27T17:48:47.375Z,25.37
2022-11-27T17:51:14.497Z,17.77
2022-11-27T17:53:41.469Z,17.53
2022-11-27T17:56:10.740Z,14.37
2022-11-27T17:58:38.416Z,17.67
2022-11-27T18:01:13.510Z,18.00
2022-11-27T18:03:42.463Z,12.83
2022-11-27T18:06:09.917Z,19.03
2022-11-27T18:08:36.830Z,19.70
2022-11-27T18:11:08.763Z,13.00
2022-11-27T18:13:35.669Z,17.27
2022-11-27T18:16:09.915Z,26.47
2022-11-27T18:18:37.533Z,22.13
2022-11-27T18:21:10.205Z,14.47
2022-11-27T18:24:00.321Z,12.37
2022-11-27T18:26:52.491Z,12.90
2022-11-27T18:29:15.742Z,11.13
2022-11-27T18:31:44.171Z,17.50
2022-11-27T18:34:11.224Z,21.43
2022-11-27T18:36:38.443Z,11.97
2022-11-27T18:39:05.407Z,18.13
2022-11-27T18:41:32.366Z,17.07
2022-11-27T18:43:59.440Z,15.57
2022-11-27T18:46:26.608Z,20.27
2022-11-27T18:48:55.024Z,13.90
2022-11-27T18:51:26.598Z,15.33
2022-11-27T18:53:54.563Z,24.30
2022-11-27T18:56:23.965Z,14.27
2022-11-27T18:58:51.216Z,17.93
2022-11-27T19:01:21.155Z,20.03
2022-11-27T19:03:48.966Z,21.20
2022-11-27T19:06:20.848Z,17.67
2022-11-27T19:08:48.015Z,17.00
2022-11-27T19:11:17.513Z,18.33
2022-11-27T19:13:45.923Z,15.60
2022-11-27T19:16:22.012Z,16.60
2022-11-27T19:18:49.559Z,16.00
2022-11-27T19:21:23.997Z,18.10
2022-11-27T19:23:54.621Z,27.73
2022-11-27T19:26:23.959Z,18.47
2022-11-27T19:28:51.850Z,24.07
2022-11-27T19:31:20.379Z,28.53
2022-11-27T19:33:51.854Z,22.93
2022-11-27T19:36:21.584Z,17.93
2022-11-27T19:38:54.295Z,23.20
2022-11-27T19:41:22.774Z,23.73
2022-11-27T19:43:49.890Z,21.73
2022-11-27T19:46:19.338Z,24.40
2022-11-27T19:48:46.875Z,33.13
2022-11-27T19:51:14.803Z,23.27
2022-11-27T19:53:45.693Z,30.10
2022-11-27T19:56:13.300Z,26.67
2022-11-27T19:58:41.324Z,20.77
2022-11-27T20:01:09.507Z,19.30
2022-11-27T20:03:36.901Z,21.20
2022-11-27T20:06:06.415Z,27.77
2022-11-27T20:08:33.804Z,24.30
2022-11-27T20:11:06.598Z,21.90
2022-11-27T20:13:36.097Z,17.23
2022-11-27T20:16:06.893Z,18.27
2022-11-27T20:18:34.215Z,18.10
2022-11-27T20:21:05.498Z,18.00
2022-11-27T20:23:32.990Z,16.97
2022-11-27T20:26:00.397Z,14.53
2022-11-27T20:28:29.019Z,17.97
2022-11-27T20:30:57.669Z,17.47
2022-11-27T20:33:24.817Z,15.70
2022-11-27T20:35:52.291Z,18.57
2022-11-27T20:38:19.613Z,19.17
2022-11-27T20:40:47.400Z,15.73
2022-11-27T20:43:15.016Z,15.60
2022-11-27T20:45:44.476Z,17.30
2022-11-27T20:48:11.732Z,16.07
2022-11-27T20:50:41.027Z,13.67
2022-11-27T20:53:08.386Z,22.17
2022-11-27T20:55:36.195Z,16.80
2022-11-27T20:58:03.389Z,16.67
2022-11-27T21:00:31.214Z,17.63
2022-11-27T21:03:05.595Z,15.20
2022-11-27T21:05:36.920Z,19.40
2022-11-27T21:08:06.945Z,16.83
2022-11-27T21:10:42.466Z,14.20
2022-11-27T21:13:09.517Z,15.80
2022-11-27T21:15:36.911Z,14.50
2022-11-27T21:18:05.712Z,15.63
2022-11-27T21:20:34.312Z,17.33
2022-11-27T21:23:03.965Z,14.07
2022-11-27T21:25:31.142Z,13.93
2022-11-27T21:27:59.413Z,17.93
2022-11-27T21:30:26.931Z,16.33
2022-11-27T21:32:53.944Z,20.33
2022-11-27T21:35:22.559Z,15.97
2022-11-27T21:37:52.221Z,15.10
2022-11-27T21:40:22.171Z,16.20
2022-11-27T21:42:51.930Z,17.33
2022-11-27T21:45:22.228Z,17.53
2022-11-27T21:47:52.613Z,15.37
2022-11-27T21:50:19.848Z,19.77
2022-11-27T21:52:48.335Z,16.73
2022-11-27T21:55:15.639Z,18.50
2022-11-27T21:57:42.464Z,19.63
2022-11-27T22:00:13.649Z,23.67
2022-11-27T22:02:47.186Z,20.33
2022-11-27T22:05:15.854Z,13.80
2022-11-27T22:07:42.861Z,19.63
2022-11-27T22:10:12.224Z,18.10
2022-11-27T22:12:48.026Z,15.60
2022-11-27T22:15:16.000Z,16.30
2022-11-27T22:17:43.048Z,16.13
2022-11-27T22:20:13.925Z,16.07
2022-11-27T22:22:46.769Z,19.87
2022-11-27T22:25:19.840Z,14.33
2022-11-27T22:27:51.972Z,22.27
2022-11-27T22:30:22.484Z,18.13
2022-11-27T22:32:49.444Z,16.13
2022-11-27T22:35:18.858Z,11.63
2022-11-27T22:37:46.130Z,16.87
2022-11-27T22:40:15.439Z,12.80
2022-11-27T22:42:42.322Z,12.43
2022-11-27T22:45:10.274Z,11.80
2022-11-27T22:47:37.550Z,9.97
2022-11-27T22:50:05.907Z,17.00
2022-11-27T22:52:32.860Z,10.80
2022-11-27T22:55:00.205Z,15.50
2022-11-27T22:57:28.490Z,12.43
2022-11-27T22:59:55.974Z,12.20
2022-11-27T23:02:23.021Z,14.77
2022-11-27T23:04:50.314Z,12.03
2022-11-27T23:07:22.301Z,13.93
2022-11-27T23:09:52.089Z,14.63
2022-11-27T23:12:19.118Z,12.20
2022-11-27T23:14:47.571Z,13.27
2022-11-27T23:17:14.495Z,14.17
2022-11-27T23:19:41.866Z,12.57
2022-11-27T23:22:08.751Z,13.17
2022-11-27T23:24:36.195Z,13.00
2022-11-27T23:27:03.122Z,12.70
2022-11-27T23:29:30.353Z,12.73
2022-11-27T23:31:58.661Z,11.07
2022-11-27T23:34:26.174Z,13.63
2022-11-27T23:36:53.035Z,10.10
2022-11-27T23:39:20.331Z,13.77
2022-11-27T23:41:49.157Z,15.13
2022-11-27T23:44:16.660Z,9.03
2022-11-27T23:46:43.681Z,14.57
2022-11-27T23:49:12.212Z,11.17
2022-11-27T23:51:39.194Z,9.60
2022-11-27T23:54:09.400Z,14.90
2022-11-27T23:56:37.107Z,11.10
2022-11-27T23:59:04.641Z,8.60
